Time;durP1;ratioP1;P1;durP2;ratioP2;P2;SDS_P1;SDS_P2;PMS_P1;PMS_P2;Temp;Humidity;BMP_temperature;BMP_pressure;BME280_temperature;BME280_humidity;BME280_pressure;Samples;Min_cycle;Max_cycle;Signal;HPM_P1;HPM_P2
2023/03/26 04:30:07;;;;;;;1.60;0.80;;;10.40;75.70;;;;;;6076574;23;20104;31
2023/03/26 04:32:33;;;;;;;11.95;1.48;;;10.50;75.50;;;;;;4931905;29;20077;-74
2023/03/26 04:35:02;;;;;;;6.20;1.20;;;10.40;74.50;;;;;;4938436;29;20030;-74
2023/03/26 04:37:35;;;;;;;5.45;1.63;;;10.40;74.90;;;;;;4937946;29;20028;-74
2023/03/26 04:40:08;;;;;;;2.17;0.85;;;10.40;74.50;;;;;;4938412;29;20032;-74
2023/03/26 04:42:36;;;;;;;5.32;1.45;;;10.40;74.40;;;;;;4939408;29;20023;-74
2023/03/26 04:45:03;;;;;;;6.32;1.20;;;10.40;74.30;;;;;;4938270;29;20024;-75
2023/03/26 04:47:29;;;;;;;2.63;1.33;;;10.40;74.40;;;;;;4938967;29;20036;-74
2023/03/26 04:49:54;;;;;;;4.38;1.20;;;10.40;73.80;;;;;;4939117;29;20107;-74
2023/03/26 04:52:20;;;;;;;2.80;1.13;;;10.50;73.90;;;;;;4938642;29;20051;-74
2023/03/26 04:54:46;;;;;;;1.17;0.90;;;10.50;74.10;;;;;;4937504;29;20031;-74
2023/03/26 04:57:22;;;;;;;6.47;1.45;;;10.50;74.30;;;;;;4939139;29;20039;-74
2023/03/26 04:59:48;;;;;;;4.63;1.30;;;10.50;74.20;;;;;;4919908;29;20499;-75
2023/03/26 05:02:14;;;;;;;3.47;1.13;;;10.50;73.90;;;;;;4932553;29;20035;-75
2023/03/26 05:04:42;;;;;;;2.75;0.80;;;10.60;73.80;;;;;;4939042;29;20031;-74
2023/03/26 05:07:10;;;;;;;3.03;0.98;;;10.50;74.10;;;;;;4939263;29;20024;-75
2023/03/26 05:09:36;;;;;;;2.88;1.00;;;10.50;74.10;;;;;;4938499;29;20484;-74
2023/03/26 05:12:02;;;;;;;3.53;1.00;;;10.60;74.20;;;;;;4921975;29;20073;-74
2023/03/26 05:14:27;;;;;;;3.42;0.82;;;10.50;74.30;;;;;;4938505;29;20442;-75
2023/03/26 05:16:53;;;;;;;1.50;1.20;;;10.50;74.50;;;;;;4938776;29;20040;-75
2023/03/26 05:19:19;;;;;;;4.85;1.13;;;10.50;74.50;;;;;;4939084;29;20050;-74
2023/03/26 05:21:45;;;;;;;3.35;0.90;;;10.50;74.60;;;;;;4938909;29;20036;-75
2023/03/26 05:24:10;;;;;;;3.50;1.27;;;10.50;74.70;;;;;;4937742;29;20024;-75
2023/03/26 05:26:36;;;;;;;7.97;1.13;;;10.50;74.50;;;;;;4938894;29;20032;-74
2023/03/26 05:29:03;;;;;;;9.75;1.27;;;10.50;74.50;;;;;;4938919;29;20034;-75
2023/03/26 05:31:29;;;;;;;7.80;1.20;;;10.30;74.90;;;;;;4926673;29;20050;-75
2023/03/26 05:33:56;;;;;;;3.45;1.00;;;10.30;75.20;;;;;;4919820;29;20055;-75
2023/03/26 05:36:22;;;;;;;4.22;1.23;;;10.30;75.20;;;;;;4919869;29;20032;-74
2023/03/26 05:38:48;;;;;;;6.50;1.30;;;10.20;75.50;;;;;;4918452;29;20028;-75
2023/03/26 05:41:15;;;;;;;2.03;1.15;;;10.20;75.60;;;;;;4919631;29;20051;-75
2023/03/26 05:43:43;;;;;;;2.33;0.90;;;10.20;75.50;;;;;;4919621;29;20092;-75
2023/03/26 05:46:10;;;;;;;5.57;1.20;;;10.10;75.50;;;;;;4928062;29;20036;-75
2023/03/26 05:48:37;;;;;;;4.78;1.08;;;10.00;75.90;;;;;;4919614;29;20024;-74
2023/03/26 05:51:03;;;;;;;3.45;0.93;;;9.90;76.30;;;;;;4919555;29;20024;-74
2023/03/26 05:53:29;;;;;;;2.65;1.00;;;9.90;76.50;;;;;;4917391;29;20084;-74
2023/03/26 05:55:57;;;;;;;4.80;1.17;;;9.90;76.40;;;;;;4918885;29;20036;-74
2023/03/26 05:58:25;;;;;;;2.58;0.85;;;9.80;76.50;;;;;;4919536;29;20028;-74
2023/03/26 06:01:07;;;;;;;2.38;1.10;;;9.90;76.60;;;;;;4918582;29;20075;-73
2023/03/26 06:03:35;;;;;;;5.25;1.20;;;9.90;76.50;;;;;;4906123;29;20567;-74
2023/03/26 06:06:02;;;;;;;5.53;0.90;;;9.90;76.50;;;;;;4916763;29;20115;-74
2023/03/26 06:08:29;;;;;;;4.43;1.38;;;9.90;76.40;;;;;;4919160;29;20512;-75
2023/03/26 06:11:03;;;;;;;10.07;1.27;;;9.90;76.50;;;;;;4917142;29;20058;-75
2023/03/26 06:13:29;;;;;;;9.10;1.45;;;9.80;76.50;;;;;;4917835;29;20042;-74
2023/03/26 06:15:57;;;;;;;3.03;0.75;;;9.90;76.50;;;;;;4919052;29;20025;-75
2023/03/26 06:18:23;;;;;;;5.40;1.25;;;9.80;76.70;;;;;;4917891;29;20028;-75
2023/03/26 06:20:50;;;;;;;4.00;1.73;;;9.80;76.60;;;;;;4916737;29;20440;-75
2023/03/26 06:23:17;;;;;;;1.85;0.90;;;9.80;76.60;;;;;;4919071;29;20056;-74
2023/03/26 06:25:44;;;;;;;4.55;0.90;;;9.80;76.60;;;;;;4918072;29;20063;-74
2023/03/26 06:28:10;;;;;;;5.53;1.40;;;9.90;76.60;;;;;;4917812;29;20024;-75
2023/03/26 06:30:36;;;;;;;1.33;0.88;;;9.90;76.50;;;;;;4918738;29;20155;-74
2023/03/26 06:33:02;;;;;;;5.25;1.13;;;9.90;76.30;;;;;;4917327;29;20032;-78
2023/03/26 06:35:28;;;;;;;2.47;1.05;;;10.00;76.30;;;;;;4916462;29;20029;-76
2023/03/26 06:37:54;;;;;;;2.38;1.20;;;10.00;76.30;;;;;;4918522;29;20084;-79
2023/03/26 06:40:20;;;;;;;6.65;1.58;;;10.10;76.10;;;;;;4917598;29;20028;-77
2023/03/26 06:42:46;;;;;;;9.35;1.10;;;10.20;75.90;;;;;;4917615;29;20043;-77
2023/03/26 06:45:12;;;;;;;2.63;0.90;;;10.20;75.90;;;;;;4918449;29;20034;-78
2023/03/26 06:47:37;;;;;;;2.63;1.42;;;10.30;75.60;;;;;;4917932;29;20056;-77
2023/03/26 06:50:04;;;;;;;1.83;1.05;;;10.50;75.40;;;;;;4917383;29;20538;-76
2023/03/26 06:52:30;;;;;;;1.65;1.00;;;10.50;75.30;;;;;;4916486;29;20522;-75
2023/03/26 06:54:55;;;;;;;2.83;0.85;;;10.50;75.40;;;;;;4916108;29;20028;-75
2023/03/26 06:57:21;;;;;;;2.38;1.02;;;10.50;75.40;;;;;;4917351;29;20032;-75
2023/03/26 06:59:47;;;;;;;4.38;1.20;;;10.50;75.50;;;;;;4917429;29;20020;-74
2023/03/26 07:02:12;;;;;;;2.53;1.08;;;10.60;75.50;;;;;;4889413;29;20107;-74
2023/03/26 07:04:38;;;;;;;4.95;1.20;;;10.70;75.30;;;;;;4917515;29;20024;-75
2023/03/26 07:07:04;;;;;;;4.55;1.13;;;11.00;74.40;;;;;;4918058;29;20032;-74
2023/03/26 07:09:30;;;;;;;3.20;1.15;;;11.40;73.60;;;;;;4920933;29;20031;-74
2023/03/26 07:11:56;;;;;;;6.18;1.30;;;11.80;72.40;;;;;;4921389;29;20024;-74
2023/03/26 07:14:31;;;;;;;4.38;1.00;;;12.20;71.40;;;;;;4921397;29;20032;-76
2023/03/26 07:16:58;;;;;;;5.20;1.00;;;12.80;70.30;;;;;;4917907;29;20099;-73
2023/03/26 07:19:24;;;;;;;9.23;1.20;;;13.40;68.70;;;;;;4920448;29;20056;-74
2023/03/26 07:21:53;;;;;;;4.22;1.17;;;14.00;67.30;;;;;;4919497;29;20031;-74
2023/03/26 07:24:19;;;;;;;5.63;1.20;;;14.70;65.10;;;;;;4920334;29;20055;-74
2023/03/26 07:27:00;;;;;;;6.35;1.23;;;14.00;65.60;;;;;;4919376;29;20035;-73
2023/03/26 07:29:35;;;;;;;3.50;1.00;;;13.20;67.80;;;;;;4920805;29;20488;-74
2023/03/26 07:32:14;;;;;;;8.07;1.33;;;12.70;69.40;;;;;;4919070;29;20415;-74
2023/03/26 07:35:04;;;;;;;4.88;1.15;;;12.30;70.90;;;;;;4920600;29;20024;-73
2023/03/26 07:37:44;;;;;;;3.33;1.23;;;12.00;71.80;;;;;;4917978;29;20043;-73
2023/03/26 07:40:09;;;;;;;2.33;1.15;;;11.70;72.80;;;;;;4917945;29;20443;-73
2023/03/26 07:42:54;;;;;;;12.40;1.52;;;11.50;73.50;;;;;;4918088;29;20127;-73
2023/03/26 07:45:29;;;;;;;5.35;1.30;;;11.50;73.80;;;;;;4901328;29;20036;-74
2023/03/26 07:47:55;;;;;;;2.42;1.50;;;11.50;74.10;;;;;;4916828;29;20044;-73
2023/03/26 07:50:22;;;;;;;4.25;1.52;;;11.50;74.30;;;;;;4915857;29;20511;-73
2023/03/26 07:52:48;;;;;;;4.35;0.90;;;11.50;74.40;;;;;;4912465;29;20028;-73
2023/03/26 07:55:15;;;;;;;1.60;0.85;;;11.50;74.50;;;;;;4903100;29;20035;-73
2023/03/26 07:57:54;;;;;;;7.55;1.67;;;11.50;74.50;;;;;;4918999;29;20024;-73
2023/03/26 08:00:50;;;;;;;4.03;1.53;;;11.60;74.60;;;;;;4919057;29;20043;-73
2023/03/26 08:03:28;;;;;;;5.45;1.00;;;11.70;74.80;;;;;;4898017;29;21478;-74
2023/03/26 08:06:11;;;;;;;4.57;1.20;;;11.70;74.70;;;;;;4919897;29;20020;-74
2023/03/26 08:08:55;;;;;;;6.22;1.63;;;11.60;74.60;;;;;;4902245;29;20055;-72
2023/03/26 08:11:45;;;;;;;8.18;1.98;;;11.50;75.30;;;;;;4919976;29;20349;-73
2023/03/26 08:14:21;;;;;;;9.40;1.70;;;11.30;76.00;;;;;;4918066;29;20043;-74
2023/03/26 08:16:55;;;;;;;7.05;1.42;;;11.30;77.00;;;;;;4919395;29;20455;-73
2023/03/26 08:19:45;;;;;;;8.10;1.80;;;11.20;77.10;;;;;;4918374;29;20712;-73
2023/03/26 08:22:25;;;;;;;7.80;1.38;;;10.90;75.80;;;;;;4917756;29;20491;-73
2023/03/26 08:25:04;;;;;;;1.92;1.20;;;10.70;77.00;;;;;;4902426;29;20088;-73
2023/03/26 08:27:50;;;;;;;4.00;1.58;;;10.70;77.20;;;;;;4898504;29;20043;-73
2023/03/26 08:30:34;;;;;;;4.15;2.28;;;10.70;76.80;;;;;;4917520;29;20103;-73
2023/03/26 08:33:21;;;;;;;0.93;0.82;;;10.60;76.60;;;;;;4898834;29;20036;-73
2023/03/26 08:35:48;;;;;;;1.60;1.10;;;10.60;76.40;;;;;;4913811;29;20032;-73
2023/03/26 08:38:16;;;;;;;8.32;3.55;;;10.50;76.40;;;;;;4902899;29;20111;-73
2023/03/26 08:41:09;;;;;;;11.45;3.22;;;10.60;76.40;;;;;;4917953;29;20039;-73
2023/03/26 08:44:15;;;;;;;11.70;4.90;;;10.70;76.40;;;;;;4915574;29;20032;-73
2023/03/26 08:47:02;;;;;;;11.10;4.63;;;11.00;76.10;;;;;;4918040;29;20032;-72
2023/03/26 08:49:36;;;;;;;6.93;2.83;;;11.40;75.80;;;;;;4913826;29;20080;-73
2023/03/26 08:52:40;;;;;;;4.97;1.83;;;11.70;75.60;;;;;;4913409;29;20032;-73
2023/03/26 08:55:38;;;;;;;2.17;1.30;;;11.80;74.90;;;;;;4882817;29;20055;-73
2023/03/26 08:58:34;;;;;;;4.03;1.50;;;11.70;74.10;;;;;;4850602;29;20045;-73
2023/03/26 09:01:17;;;;;;;2.67;0.98;;;11.60;74.20;;;;;;4916106;29;20510;-73
2023/03/26 09:04:20;;;;;;;1.85;0.90;;;11.70;75.20;;;;;;4908147;29;20032;-73
2023/03/26 09:06:55;;;;;;;1.23;0.80;;;11.40;73.90;;;;;;4908230;29;20033;-73
2023/03/26 09:09:39;;;;;;;3.63;1.05;;;11.20;74.20;;;;;;4900850;29;20143;-73
2023/03/26 09:12:48;;;;;;;3.92;1.00;;;11.10;75.00;;;;;;4900732;29;20024;-73
2023/03/26 09:15:41;;;;;;;1.75;0.88;;;11.00;75.60;;;;;;4918177;29;20032;-74
2023/03/26 09:18:36;;;;;;;1.85;0.75;;;10.90;75.10;;;;;;4916803;29;20036;-73
2023/03/26 09:21:24;;;;;;;2.10;0.80;;;10.80;75.20;;;;;;4918216;29;20028;-73
2023/03/26 09:24:24;;;;;;;2.08;1.05;;;10.70;75.70;;;;;;4916944;29;20028;-73
2023/03/26 09:26:50;;;;;;;1.08;0.98;;;10.40;75.60;;;;;;4907620;29;20047;-73
2023/03/26 09:29:53;;;;;;;5.25;1.30;;;10.50;76.10;;;;;;4918288;29;20024;-72
2023/03/26 09:32:42;;;;;;;2.55;1.00;;;10.50;76.20;;;;;;4916254;29;20054;-73
2023/03/26 09:35:33;;;;;;;2.25;0.68;;;10.30;75.90;;;;;;4917153;29;20048;-73
2023/03/26 09:38:37;;;;;;;2.30;1.73;;;10.30;75.80;;;;;;4917864;29;20028;-73
2023/03/26 09:41:24;;;;;;;3.60;0.93;;;10.10;76.50;;;;;;4915141;29;20511;-75
2023/03/26 09:44:28;;;;;;;2.65;0.90;;;10.10;76.50;;;;;;4919041;29;20036;-73
2023/03/26 09:47:21;;;;;;;2.15;0.77;;;10.00;76.70;;;;;;4902474;29;20039;-75
2023/03/26 09:50:18;;;;;;;1.35;0.70;;;10.00;77.10;;;;;;4893498;29;20043;-76
2023/03/26 09:52:56;;;;;;;1.90;0.98;;;10.00;77.10;;;;;;4900102;29;20052;-74
2023/03/26 09:55:44;;;;;;;2.50;1.10;;;10.00;77.30;;;;;;4912807;29;20056;-77
2023/03/26 09:58:19;;;;;;;3.33;1.30;;;10.00;77.20;;;;;;4918942;29;20028;-75
2023/03/26 10:00:59;;;;;;;1.35;0.80;;;10.10;78.10;;;;;;4918553;29;20069;-74
2023/03/26 10:03:54;;;;;;;1.17;0.63;;;10.20;77.70;;;;;;4899680;29;20017;-75
2023/03/26 10:06:33;;;;;;;2.75;0.95;;;10.30;77.40;;;;;;4899671;29;20056;-75
2023/03/26 10:09:23;;;;;;;1.73;0.90;;;10.40;76.90;;;;;;4918028;29;20491;-75
2023/03/26 10:12:06;;;;;;;0.80;0.80;;;10.40;77.10;;;;;;4918054;29;20395;-75
2023/03/26 10:14:43;;;;;;;1.25;0.90;;;10.40;77.40;;;;;;4919202;29;20036;-75
2023/03/26 10:17:20;;;;;;;2.22;1.13;;;10.40;77.30;;;;;;4917942;29;20035;-74
2023/03/26 10:19:56;;;;;;;1.67;1.00;;;10.50;77.30;;;;;;4919381;29;20070;-75
2023/03/26 10:22:30;;;;;;;1.30;0.70;;;10.30;76.90;;;;;;4918389;29;20036;-75
2023/03/26 10:25:21;;;;;;;1.05;0.80;;;10.50;77.60;;;;;;4919352;29;20111;-75
2023/03/26 10:27:49;;;;;;;1.55;1.00;;;10.80;77.20;;;;;;4919378;29;20034;-75
2023/03/26 10:30:27;;;;;;;0.80;0.65;;;11.40;76.70;;;;;;4918198;29;20048;-76
2023/03/26 10:33:21;;;;;;;1.38;0.88;;;11.80;75.50;;;;;;4918743;29;20040;-75
2023/03/26 10:35:52;;;;;;;4.15;0.82;;;12.30;76.00;;;;;;4918564;29;20032;-75
2023/03/26 10:38:30;;;;;;;2.58;1.10;;;12.50;73.90;;;;;;4918248;29;20088;-74
2023/03/26 10:41:20;;;;;;;2.67;0.80;;;12.70;73.80;;;;;;4907143;29;20036;-75
2023/03/26 10:43:52;;;;;;;0.95;0.80;;;12.80;74.80;;;;;;4921636;29;20051;-75
2023/03/26 10:46:33;;;;;;;1.27;0.80;;;12.90;73.90;;;;;;4922810;29;20058;-75
2023/03/26 10:49:16;;;;;;;1.65;0.80;;;12.80;73.90;;;;;;4922756;29;20028;-75
2023/03/26 10:51:50;;;;;;;1.20;0.80;;;12.80;74.00;;;;;;4921844;29;20090;-75
2023/03/26 10:55:03;;;;;;;2.63;1.00;;;12.80;74.60;;;;;;4922869;29;20032;-75
2023/03/26 10:57:59;;;;;;;1.65;0.60;;;12.80;74.50;;;;;;4838171;29;20162;-74
2023/03/26 11:00:27;;;;;;;2.08;0.70;;;12.70;74.40;;;;;;4901707;29;20036;-75
2023/03/26 11:03:15;;;;;;;2.45;0.70;;;12.80;74.40;;;;;;4905761;29;20060;-75
2023/03/26 11:05:49;;;;;;;1.60;0.70;;;12.90;74.10;;;;;;4921717;29;20027;-75
2023/03/26 11:08:35;;;;;;;1.15;0.60;;;13.00;72.70;;;;;;4922353;29;20028;-75
2023/03/26 11:11:12;;;;;;;1.40;0.75;;;13.00;73.10;;;;;;4921699;29;20396;-75
2023/03/26 11:14:06;;;;;;;3.42;0.85;;;13.20;72.20;;;;;;4921152;29;20035;-75
2023/03/26 11:16:35;;;;;;;1.75;0.80;;;13.20;71.20;;;;;;4922235;29;20024;-76
2023/03/26 11:19:26;;;;;;;0.93;0.60;;;13.20;72.10;;;;;;4921329;29;20040;-75
2023/03/26 11:22:22;;;;;;;1.48;0.85;;;13.30;71.80;;;;;;4909485;29;20070;-74
2023/03/26 11:25:25;;;;;;;3.67;1.30;;;13.30;71.80;;;;;;4903387;29;20444;-75
2023/03/26 11:28:30;;;;;;;4.30;2.20;;;13.40;72.30;;;;;;4903499;29;20044;-75
2023/03/26 11:31:15;;;;;;;4.13;0.90;;;13.50;71.60;;;;;;4915647;29;20055;-75
2023/03/26 11:33:46;;;;;;;0.93;0.60;;;13.60;70.80;;;;;;4922045;29;20104;-75
2023/03/26 11:36:16;;;;;;;3.97;1.17;;;13.40;71.30;;;;;;4920863;29;20039;-74
2023/03/26 11:38:55;;;;;;;5.90;1.73;;;13.50;72.10;;;;;;4922120;29;20087;-75
2023/03/26 11:41:26;;;;;;;1.50;0.80;;;13.50;71.70;;;;;;4920920;29;20534;-75
2023/03/26 11:44:34;;;;;;;1.83;0.73;;;13.70;71.40;;;;;;4921895;29;20024;-75
2023/03/26 11:47:04;;;;;;;3.08;1.20;;;13.70;70.80;;;;;;4875938;29;20051;-75
2023/03/26 11:49:30;;;;;;;1.73;0.77;;;13.70;70.60;;;;;;4921355;29;20028;-76
2023/03/26 11:51:56;;;;;;;2.30;1.17;;;13.70;69.70;;;;;;4921651;29;20036;-75
2023/03/26 11:54:22;;;;;;;3.47;1.50;;;13.70;70.20;;;;;;4920803;29;20515;-74
2023/03/26 11:56:58;;;;;;;3.33;1.00;;;13.80;71.20;;;;;;4919616;29;20028;-76
2023/03/26 11:59:34;;;;;;;6.15;1.55;;;13.90;71.20;;;;;;4920910;29;20029;-74
2023/03/26 12:02:12;;;;;;;7.82;1.35;;;13.90;70.80;;;;;;4921294;29;20870;-75
2023/03/26 12:04:40;;;;;;;4.53;1.30;;;14.00;70.40;;;;;;4921369;29;20031;-76
2023/03/26 12:07:19;;;;;;;2.00;0.82;;;13.90;70.30;;;;;;4920497;29;20036;-75
2023/03/26 12:09:53;;;;;;;3.58;1.65;;;13.90;69.80;;;;;;4921493;29;20021;-75
2023/03/26 12:12:20;;;;;;;2.97;1.10;;;14.10;69.50;;;;;;4921275;29;20040;-75
2023/03/26 12:14:47;;;;;;;3.38;0.95;;;14.30;70.40;;;;;;4920472;29;20439;-75
2023/03/26 12:17:23;;;;;;;2.53;0.98;;;14.30;69.80;;;;;;4921024;29;20043;-76
2023/03/26 12:19:49;;;;;;;15.13;6.25;;;14.40;69.70;;;;;;4920387;29;20028;-75
2023/03/26 12:22:28;;;;;;;7.82;3.03;;;14.40;68.10;;;;;;4921156;29;20428;-75
2023/03/26 12:25:19;;;;;;;3.17;1.50;;;14.50;68.80;;;;;;4920414;29;20035;-74
2023/03/26 12:27:51;;;;;;;2.38;1.20;;;14.50;68.50;;;;;;4921242;29;20276;-75
2023/03/26 12:30:21;;;;;;;4.40;1.73;;;14.50;68.60;;;;;;4921137;29;20032;-75
2023/03/26 12:32:49;;;;;;;3.88;1.88;;;14.60;69.30;;;;;;4924174;29;20071;-75
2023/03/26 12:35:25;;;;;;;5.97;2.28;;;14.70;68.70;;;;;;4921010;29;20032;-75
2023/03/26 12:37:52;;;;;;;3.25;1.00;;;14.80;67.40;;;;;;4921008;29;20059;-75
2023/03/26 12:40:24;;;;;;;5.28;2.60;;;14.80;67.90;;;;;;4919943;29;20044;-75
2023/03/26 12:42:52;;;;;;;2.38;1.40;;;14.80;67.80;;;;;;4920907;29;20055;-75
2023/03/26 12:45:36;;;;;;;7.00;1.95;;;14.70;68.10;;;;;;4919908;29;20719;-75
2023/03/26 12:48:02;;;;;;;7.35;2.63;;;14.70;67.40;;;;;;4920466;29;20115;-75
2023/03/26 12:50:53;;;;;;;4.13;1.52;;;14.80;66.40;;;;;;4919843;29;20063;-75
2023/03/26 12:53:41;;;;;;;2.90;1.52;;;14.90;65.70;;;;;;4919457;29;20040;-75
2023/03/26 12:56:26;;;;;;;5.22;1.10;;;14.90;66.70;;;;;;4920622;29;20071;-75
2023/03/26 12:59:07;;;;;;;5.38;1.60;;;14.90;66.00;;;;;;4919941;29;20036;-75
2023/03/26 13:01:51;;;;;;;5.13;1.17;;;15.20;64.90;;;;;;4919872;29;20532;-75
2023/03/26 13:04:49;;;;;;;4.72;1.30;;;15.20;64.70;;;;;;4920302;29;20024;-75
2023/03/26 13:07:40;;;;;;;3.17;1.27;;;15.10;65.40;;;;;;4853341;29;20040;-75
2023/03/26 13:10:09;;;;;;;6.25;1.20;;;14.90;63.80;;;;;;4877996;29;20108;-75
2023/03/26 13:12:39;;;;;;;4.43;1.00;;;15.10;64.80;;;;;;4919767;29;20492;-74
2023/03/26 13:15:13;;;;;;;2.40;1.02;;;15.40;64.10;;;;;;4935627;29;20020;-76
2023/03/26 13:18:11;;;;;;;5.43;1.08;;;15.50;63.40;;;;;;4932120;29;20024;-74
2023/03/26 13:20:53;;;;;;;3.55;0.90;;;15.40;64.10;;;;;;4916099;29;20048;-75
2023/03/26 13:23:37;;;;;;;3.03;1.08;;;15.10;65.30;;;;;;4920026;29;20496;-75
2023/03/26 13:26:25;;;;;;;4.63;1.25;;;14.70;66.90;;;;;;4919553;29;20044;-75
2023/03/26 13:29:19;;;;;;;2.92;1.10;;;14.40;67.20;;;;;;4919496;29;20020;-75
2023/03/26 13:32:22;;;;;;;2.80;0.95;;;14.30;68.50;;;;;;4917425;29;20059;-75
2023/03/26 13:35:15;;;;;;;2.75;0.90;;;14.20;69.50;;;;;;4918588;29;20060;-75
2023/03/26 13:37:52;;;;;;;5.13;1.45;;;14.20;69.60;;;;;;4918902;29;20028;-75
2023/03/26 13:40:36;;;;;;;3.10;1.00;;;14.20;69.90;;;;;;4902788;29;20025;-75
2023/03/26 13:43:07;;;;;;;2.58;1.02;;;14.20;70.40;;;;;;4918934;29;20056;-75
2023/03/26 13:45:58;;;;;;;3.65;1.42;;;14.20;70.90;;;;;;4919733;29;20422;-75
2023/03/26 13:48:47;;;;;;;1.35;0.80;;;14.20;70.90;;;;;;4918772;29;20070;-75
2023/03/26 13:51:17;;;;;;;3.20;0.75;;;14.40;70.20;;;;;;4918000;29;20040;-75
2023/03/26 13:53:49;;;;;;;3.33;0.80;;;14.60;70.80;;;;;;4916824;29;20087;-74
2023/03/26 13:56:18;;;;;;;1.73;0.70;;;14.60;70.90;;;;;;4915531;29;20298;-75
2023/03/26 13:58:55;;;;;;;1.40;0.70;;;14.60;70.30;;;;;;4917391;29;20399;-75
2023/03/26 14:01:33;;;;;;;1.30;0.80;;;14.50;69.30;;;;;;4918788;29;20079;-75
2023/03/26 14:04:05;;;;;;;5.53;0.90;;;14.50;68.50;;;;;;4918299;29;20036;-76
2023/03/26 14:06:56;;;;;;;0.98;0.63;;;14.50;68.70;;;;;;4919205;29;20032;-76
2023/03/26 14:09:30;;;;;;;2.63;0.90;;;14.80;67.90;;;;;;4912097;29;20052;-75
2023/03/26 14:11:56;;;;;;;3.88;1.13;;;14.80;67.90;;;;;;4918064;29;20028;-75
2023/03/26 14:14:34;;;;;;;2.55;0.88;;;15.00;67.40;;;;;;4916435;29;20107;-75
2023/03/26 14:17:11;;;;;;;2.97;0.77;;;15.10;66.10;;;;;;4917533;29;20028;-75
2023/03/26 14:20:03;;;;;;;4.28;1.10;;;15.10;66.40;;;;;;4918744;29;20040;-75
2023/03/26 14:22:47;;;;;;;3.42;1.02;;;14.80;65.60;;;;;;4916698;29;20028;-75
2023/03/26 14:25:24;;;;;;;5.30;0.80;;;14.90;67.80;;;;;;4917789;29;20151;-75
2023/03/26 14:27:59;;;;;;;4.72;1.02;;;15.00;67.20;;;;;;4916255;29;20402;-75
2023/03/26 14:30:56;;;;;;;6.25;0.90;;;14.90;63.20;;;;;;4916360;29;20024;-75
2023/03/26 14:33:43;;;;;;;4.50;0.82;;;14.90;62.80;;;;;;4917481;29;20124;-75
2023/03/26 14:36:27;;;;;;;3.90;1.42;;;14.80;60.50;;;;;;4917031;29;20025;-74
2023/03/26 14:39:15;;;;;;;4.43;0.77;;;14.90;58.90;;;;;;4916471;29;20524;-75
2023/03/26 14:42:00;;;;;;;3.58;1.20;;;14.90;59.70;;;;;;4918781;29;20118;-75
2023/03/26 14:45:01;;;;;;;4.65;1.20;;;15.00;59.60;;;;;;4916624;29;20020;-75
2023/03/26 14:47:29;;;;;;;5.43;0.98;;;15.20;59.60;;;;;;4916313;29;20020;-75
2023/03/26 14:50:19;;;;;;;4.68;0.60;;;15.10;61.00;;;;;;4918458;29;20088;-75
2023/03/26 14:52:53;;;;;;;4.82;1.08;;;14.90;60.90;;;;;;4917449;29;20447;-75
2023/03/26 14:55:34;;;;;;;0.80;0.43;;;14.50;59.80;;;;;;4917914;29;20028;-75
2023/03/26 14:58:20;;;;;;;2.75;0.90;;;14.10;60.50;;;;;;4918235;29;20139;-75
2023/03/26 15:01:09;;;;;;;2.97;1.00;;;13.70;61.50;;;;;;4916492;29;20028;-75
2023/03/26 15:04:07;;;;;;;8.63;1.17;;;13.60;61.80;;;;;;4917035;29;20037;-75
2023/03/26 15:06:57;;;;;;;4.47;1.70;;;13.50;61.50;;;;;;4894939;29;20039;-75
2023/03/26 15:09:55;;;;;;;8.88;2.08;;;13.60;62.40;;;;;;4915114;29;20021;-75
2023/03/26 15:12:51;;;;;;;6.53;1.85;;;13.80;62.10;;;;;;4918241;29;20095;-74
2023/03/26 15:15:38;;;;;;;2.63;1.23;;;14.00;62.30;;;;;;4916733;29;20127;-75
2023/03/26 15:18:15;;;;;;;3.13;1.23;;;14.20;61.00;;;;;;4914051;29;20459;-75
2023/03/26 15:21:22;;;;;;;4.65;1.70;;;14.50;60.40;;;;;;4915983;29;20174;-75
2023/03/26 15:24:06;;;;;;;2.67;1.27;;;14.80;59.30;;;;;;4915502;29;20059;-75
2023/03/26 15:26:55;;;;;;;7.43;1.55;;;15.00;60.20;;;;;;4897352;29;20096;-75
2023/03/26 15:29:24;;;;;;;2.22;0.85;;;15.00;58.30;;;;;;4917995;29;20062;-75
2023/03/26 15:32:03;;;;;;;2.83;0.90;;;14.70;58.10;;;;;;4921548;29;20051;-74
2023/03/26 15:34:47;;;;;;;8.20;1.03;;;14.50;58.30;;;;;;4918963;29;20066;-75
2023/03/26 15:37:22;;;;;;;8.88;1.40;;;14.30;59.40;;;;;;4914777;29;20294;-77
2023/03/26 15:40:08;;;;;;;2.83;0.88;;;14.30;60.10;;;;;;4916353;29;20032;-77
2023/03/26 15:43:00;;;;;;;3.63;0.93;;;14.30;60.30;;;;;;4898403;29;20028;-74
2023/03/26 15:45:30;;;;;;;1.80;1.10;;;14.30;59.80;;;;;;4919149;29;20024;-75
2023/03/26 15:48:04;;;;;;;3.40;1.02;;;14.20;60.80;;;;;;4918652;29;20236;-74
2023/03/26 15:50:46;;;;;;;4.32;1.02;;;14.10;61.20;;;;;;4925439;29;20036;-73
2023/03/26 15:53:27;;;;;;;4.30;0.98;;;14.00;61.50;;;;;;4904729;29;20083;-75
2023/03/26 15:56:27;;;;;;;4.63;1.45;;;14.00;61.60;;;;;;4919320;29;20041;-74
2023/03/26 15:59:10;;;;;;;3.03;1.10;;;14.00;61.70;;;;;;4916413;29;20035;-75
2023/03/26 16:02:01;;;;;;;6.57;1.42;;;13.80;61.30;;;;;;4918279;29;20040;-74
2023/03/26 16:04:52;;;;;;;5.95;1.60;;;13.80;61.80;;;;;;4917149;29;20051;-74
2023/03/26 16:07:37;;;;;;;4.05;1.05;;;13.70;62.10;;;;;;4911156;29;20140;-75
2023/03/26 16:10:21;;;;;;;4.55;1.15;;;13.90;61.80;;;;;;4906179;29;20028;-74
2023/03/26 16:13:15;;;;;;;3.10;1.17;;;14.00;61.60;;;;;;4917703;29;20441;-74
2023/03/26 16:15:42;;;;;;;4.50;1.30;;;14.10;62.40;;;;;;4919443;29;20115;-74
2023/03/26 16:18:18;;;;;;;4.07;1.05;;;14.00;62.10;;;;;;4915045;29;20032;-74
2023/03/26 16:21:04;;;;;;;4.38;0.70;;;14.00;61.80;;;;;;4916230;29;20059;-74
2023/03/26 16:23:41;;;;;;;5.13;1.17;;;13.80;61.40;;;;;;4917301;29;20978;-74
2023/03/26 16:26:07;;;;;;;5.38;0.80;;;13.70;62.00;;;;;;4915000;29;20143;-75
2023/03/26 16:28:55;;;;;;;3.85;1.15;;;13.70;61.60;;;;;;4917296;29;20036;-75
2023/03/26 16:31:24;;;;;;;3.95;0.88;;;13.50;62.10;;;;;;4932900;29;20056;-74
2023/03/26 16:34:18;;;;;;;6.10;1.50;;;13.40;62.20;;;;;;4936869;29;20035;-74
2023/03/26 16:36:45;;;;;;;4.03;1.05;;;13.40;62.50;;;;;;4956804;29;20070;-74
2023/03/26 16:39:17;;;;;;;4.80;1.00;;;13.50;62.40;;;;;;4935796;29;20138;-75
2023/03/26 16:41:48;;;;;;;2.83;0.70;;;13.60;62.10;;;;;;4931326;29;20054;-75
2023/03/26 16:44:35;;;;;;;5.45;1.48;;;13.60;61.70;;;;;;4946964;29;20110;-74
2023/03/26 16:47:20;;;;;;;4.25;0.95;;;13.70;62.00;;;;;;4937000;29;20032;-74
2023/03/26 16:50:18;;;;;;;7.45;1.80;;;13.60;62.00;;;;;;4931453;29;20114;-74
2023/03/26 16:53:19;;;;;;;6.07;1.25;;;13.60;62.70;;;;;;4928516;29;20059;-74
2023/03/26 16:56:20;;;;;;;2.80;1.00;;;13.30;62.70;;;;;;4939207;29;20070;-74
2023/03/26 16:59:09;;;;;;;;;;;13.20;63.40;;;;;;4935846;29;20048;-74
2023/03/26 17:01:55;;;;;;;7.53;1.80;;;13.20;64.30;;;;;;4889973;29;19926;-75
2023/03/26 17:04:26;;;;;;;5.80;1.85;;;13.30;64.60;;;;;;4929480;29;20079;-74
2023/03/26 17:07:12;;;;;;;4.05;1.63;;;13.30;64.70;;;;;;4927728;29;20056;-74
2023/03/26 17:09:50;;;;;;;3.25;1.33;;;13.20;65.10;;;;;;4930750;29;20028;-74
2023/03/26 17:12:29;;;;;;;5.93;2.47;;;13.20;65.70;;;;;;4928293;29;20036;-74
2023/03/26 17:15:18;;;;;;;7.72;3.03;;;13.20;66.10;;;;;;4931190;29;20024;-75
2023/03/26 17:18:23;;;;;;;5.40;1.65;;;13.20;65.90;;;;;;4929419;29;20048;-74
2023/03/26 17:21:10;;;;;;;5.28;1.67;;;13.10;65.80;;;;;;4918765;29;20046;-74
2023/03/26 17:23:38;;;;;;;6.82;1.65;;;13.10;65.70;;;;;;4931539;29;20036;-74
2023/03/26 17:26:25;;;;;;;8.60;2.10;;;13.10;65.20;;;;;;4933057;29;20028;-75
2023/03/26 17:29:10;;;;;;;5.15;1.30;;;13.00;65.40;;;;;;4925085;29;20028;-75
2023/03/26 17:32:11;;;;;;;4.95;1.33;;;13.00;65.40;;;;;;4924997;29;20052;-80
2023/03/26 17:34:37;;;;;;;5.78;1.90;;;12.90;65.70;;;;;;4918627;29;20043;-76
2023/03/26 17:37:26;;;;;;;5.10;1.45;;;12.90;65.60;;;;;;4917720;29;20040;-77
2023/03/26 17:40:12;;;;;;;3.55;1.55;;;13.00;65.70;;;;;;4909962;29;20507;-76
2023/03/26 17:42:58;;;;;;;4.72;1.23;;;12.90;65.40;;;;;;4917178;29;20036;-76
2023/03/26 17:45:29;;;;;;;5.93;1.75;;;12.90;65.40;;;;;;4912510;29;20040;-77
2023/03/26 17:48:11;;;;;;;1.90;0.85;;;12.80;65.00;;;;;;4918226;29;20036;-76
2023/03/26 17:50:46;;;;;;;4.10;1.83;;;12.80;65.50;;;;;;4917351;29;21577;-78
2023/03/26 17:53:33;;;;;;;1.75;1.15;;;12.60;65.50;;;;;;4918416;29;20055;-76
2023/03/26 17:56:02;;;;;;;3.88;1.40;;;12.50;65.90;;;;;;4918572;29;20035;-75
2023/03/26 17:58:30;;;;;;;5.15;0.98;;;12.50;66.20;;;;;;4918868;29;20182;-75
2023/03/26 18:01:27;;;;;;;10.10;3.00;;;12.50;66.10;;;;;;4918735;29;20738;-77
2023/03/26 18:03:59;;;;;;;6.72;1.75;;;12.30;66.90;;;;;;4896758;29;20099;-79
2023/03/26 18:06:48;;;;;;;16.58;4.15;;;12.30;67.50;;;;;;4912801;29;20043;-76
2023/03/26 18:09:23;;;;;;;2.63;1.35;;;12.20;67.60;;;;;;4917817;29;20032;-76
2023/03/26 18:12:02;;;;;;;3.33;1.30;;;12.10;67.70;;;;;;4914878;29;20036;-76
2023/03/26 18:14:47;;;;;;;7.32;3.08;;;12.10;68.10;;;;;;4912755;29;20032;-77
2023/03/26 18:17:12;;;;;;;2.70;1.40;;;12.10;68.30;;;;;;4917941;29;20036;-76